sensor_id;sensor_type;location;lat;lon;timestamp;temperature;humidity
70366;DHT22;57787;48.216;12.396;2023-07-20T00:00:08;19.20;69.00
70366;DHT22;57787;48.216;12.396;2023-07-20T00:02:35;19.20;69.50
70366;DHT22;57787;48.216;12.396;2023-07-20T00:05:01;19.10;69.50
70366;DHT22;57787;48.216;12.396;2023-07-20T00:07:28;19.10;69.50
70366;DHT22;57787;48.216;12.396;2023-07-20T00:09:55;19.10;69.60
70366;DHT22;57787;48.216;12.396;2023-07-20T00:12:22;19.10;70.10
70366;DHT22;57787;48.216;12.396;2023-07-20T00:14:49;19.20;70.10
70366;DHT22;57787;48.216;12.396;2023-07-20T00:17:16;19.20;71.00
70366;DHT22;57787;48.216;12.396;2023-07-20T00:19:43;19.20;71.30
70366;DHT22;57787;48.216;12.396;2023-07-20T00:22:10;19.20;72.90
70366;DHT22;57787;48.216;12.396;2023-07-20T00:24:37;19.20;73.20
70366;DHT22;57787;48.216;12.396;2023-07-20T00:27:04;19.10;73.80
70366;DHT22;57787;48.216;12.396;2023-07-20T00:29:32;19.10;73.90
70366;DHT22;57787;48.216;12.396;2023-07-20T00:31:58;19.10;74.60
70366;DHT22;57787;48.216;12.396;2023-07-20T00:34:25;19.10;74.80
70366;DHT22;57787;48.216;12.396;2023-07-20T00:36:52;19.00;75.60
70366;DHT22;57787;48.216;12.396;2023-07-20T00:39:19;19.00;76.60
70366;DHT22;57787;48.216;12.396;2023-07-20T00:41:46;19.00;76.10
70366;DHT22;57787;48.216;12.396;2023-07-20T00:44:12;19.00;76.80
70366;DHT22;57787;48.216;12.396;2023-07-20T00:46:39;19.10;77.10
70366;DHT22;57787;48.216;12.396;2023-07-20T00:49:08;19.10;75.90
70366;DHT22;57787;48.216;12.396;2023-07-20T00:51:35;19.10;76.90
70366;DHT22;57787;48.216;12.396;2023-07-20T00:54:02;19.10;77.00
70366;DHT22;57787;48.216;12.396;2023-07-20T00:56:29;19.10;77.00
70366;DHT22;57787;48.216;12.396;2023-07-20T00:58:57;19.10;77.10
70366;DHT22;57787;48.216;12.396;2023-07-20T01:01:24;19.10;77.30
70366;DHT22;57787;48.216;12.396;2023-07-20T01:03:52;19.20;77.30
70366;DHT22;57787;48.216;12.396;2023-07-20T01:06:29;19.20;77.20
70366;DHT22;57787;48.216;12.396;2023-07-20T01:11:39;19.20;77.40
70366;DHT22;57787;48.216;12.396;2023-07-20T01:14:10;19.30;77.70
70366;DHT22;57787;48.216;12.396;2023-07-20T01:16:39;19.20;78.10
70366;DHT22;57787;48.216;12.396;2023-07-20T01:19:06;19.20;77.90
70366;DHT22;57787;48.216;12.396;2023-07-20T01:21:45;19.20;77.70
70366;DHT22;57787;48.216;12.396;2023-07-20T01:27:03;19.20;78.30
70366;DHT22;57787;48.216;12.396;2023-07-20T01:29:44;19.20;77.50
70366;DHT22;57787;48.216;12.396;2023-07-20T01:32:19;19.20;78.60
70366;DHT22;57787;48.216;12.396;2023-07-20T01:34:49;19.30;78.10
70366;DHT22;57787;48.216;12.396;2023-07-20T01:37:19;19.30;78.00
70366;DHT22;57787;48.216;12.396;2023-07-20T01:39:47;19.30;78.40
70366;DHT22;57787;48.216;12.396;2023-07-20T01:42:14;19.30;78.10
70366;DHT22;57787;48.216;12.396;2023-07-20T01:44:41;19.30;78.80
70366;DHT22;57787;48.216;12.396;2023-07-20T01:47:09;19.30;78.40
70366;DHT22;57787;48.216;12.396;2023-07-20T01:49:35;19.20;78.80
70366;DHT22;57787;48.216;12.396;2023-07-20T01:52:02;19.20;79.10
70366;DHT22;57787;48.216;12.396;2023-07-20T01:54:29;19.10;79.40
70366;DHT22;57787;48.216;12.396;2023-07-20T01:56:56;19.10;79.30
70366;DHT22;57787;48.216;12.396;2023-07-20T01:59:23;19.10;79.70
70366;DHT22;57787;48.216;12.396;2023-07-20T02:01:50;19.10;79.20
70366;DHT22;57787;48.216;12.396;2023-07-20T02:04:17;19.10;79.80
70366;DHT22;57787;48.216;12.396;2023-07-20T02:06:44;19.10;79.80
70366;DHT22;57787;48.216;12.396;2023-07-20T02:09:11;19.10;79.80
70366;DHT22;57787;48.216;12.396;2023-07-20T02:11:39;19.10;79.60
70366;DHT22;57787;48.216;12.396;2023-07-20T02:14:06;19.10;79.50
70366;DHT22;57787;48.216;12.396;2023-07-20T02:16:32;19.00;80.00
70366;DHT22;57787;48.216;12.396;2023-07-20T02:18:59;19.00;80.10
70366;DHT22;57787;48.216;12.396;2023-07-20T02:21:26;19.00;80.10
70366;DHT22;57787;48.216;12.396;2023-07-20T02:23:53;19.00;80.20
70366;DHT22;57787;48.216;12.396;2023-07-20T02:26:20;19.00;79.80
70366;DHT22;57787;48.216;12.396;2023-07-20T02:28:48;19.00;80.00
70366;DHT22;57787;48.216;12.396;2023-07-20T02:31:15;19.10;80.30
70366;DHT22;57787;48.216;12.396;2023-07-20T02:33:42;19.00;80.20
70366;DHT22;57787;48.216;12.396;2023-07-20T02:36:09;19.00;80.50
70366;DHT22;57787;48.216;12.396;2023-07-20T02:38:35;19.00;80.50
70366;DHT22;57787;48.216;12.396;2023-07-20T02:41:02;19.00;80.20
70366;DHT22;57787;48.216;12.396;2023-07-20T02:43:29;19.00;79.70
70366;DHT22;57787;48.216;12.396;2023-07-20T02:45:56;19.00;80.00
70366;DHT22;57787;48.216;12.396;2023-07-20T02:48:23;19.00;80.20
70366;DHT22;57787;48.216;12.396;2023-07-20T02:50:51;19.00;80.40
70366;DHT22;57787;48.216;12.396;2023-07-20T02:53:18;19.00;80.40
70366;DHT22;57787;48.216;12.396;2023-07-20T02:55:45;19.00;80.50
70366;DHT22;57787;48.216;12.396;2023-07-20T02:58:12;18.90;80.20
70366;DHT22;57787;48.216;12.396;2023-07-20T03:00:42;18.90;80.50
70366;DHT22;57787;48.216;12.396;2023-07-20T03:03:09;18.90;80.70
70366;DHT22;57787;48.216;12.396;2023-07-20T03:05:36;18.90;80.60
70366;DHT22;57787;48.216;12.396;2023-07-20T03:08:06;18.90;80.50
70366;DHT22;57787;48.216;12.396;2023-07-20T03:10:33;18.90;80.40
70366;DHT22;57787;48.216;12.396;2023-07-20T03:13:07;18.90;80.40
70366;DHT22;57787;48.216;12.396;2023-07-20T03:15:36;18.90;80.50
70366;DHT22;57787;48.216;12.396;2023-07-20T03:18:03;18.90;80.50
70366;DHT22;57787;48.216;12.396;2023-07-20T03:20:30;18.90;79.90
70366;DHT22;57787;48.216;12.396;2023-07-20T03:22:57;18.80;80.50
70366;DHT22;57787;48.216;12.396;2023-07-20T03:25:24;18.90;80.10
70366;DHT22;57787;48.216;12.396;2023-07-20T03:27:54;18.90;80.30
70366;DHT22;57787;48.216;12.396;2023-07-20T03:30:21;18.90;79.80
70366;DHT22;57787;48.216;12.396;2023-07-20T03:32:50;18.90;79.60
70366;DHT22;57787;48.216;12.396;2023-07-20T03:35:17;18.90;80.20
70366;DHT22;57787;48.216;12.396;2023-07-20T03:37:43;18.90;80.40
70366;DHT22;57787;48.216;12.396;2023-07-20T03:40:12;18.90;80.30
70366;DHT22;57787;48.216;12.396;2023-07-20T03:42:39;18.90;80.30
70366;DHT22;57787;48.216;12.396;2023-07-20T03:45:09;18.80;80.30
70366;DHT22;57787;48.216;12.396;2023-07-20T03:47:39;18.90;80.20
70366;DHT22;57787;48.216;12.396;2023-07-20T03:50:13;18.90;80.60
70366;DHT22;57787;48.216;12.396;2023-07-20T03:52:40;18.80;80.30
70366;DHT22;57787;48.216;12.396;2023-07-20T03:55:09;18.80;80.10
70366;DHT22;57787;48.216;12.396;2023-07-20T03:57:36;18.80;80.20
70366;DHT22;57787;48.216;12.396;2023-07-20T04:00:03;18.80;80.00
70366;DHT22;57787;48.216;12.396;2023-07-20T04:02:34;18.80;79.80
70366;DHT22;57787;48.216;12.396;2023-07-20T04:05:01;18.80;79.80
70366;DHT22;57787;48.216;12.396;2023-07-20T04:07:28;18.80;80.30
70366;DHT22;57787;48.216;12.396;2023-07-20T04:09:55;18.90;80.10
70366;DHT22;57787;48.216;12.396;2023-07-20T04:12:22;18.80;80.20
70366;DHT22;57787;48.216;12.396;2023-07-20T04:14:49;18.90;80.00
70366;DHT22;57787;48.216;12.396;2023-07-20T04:17:16;18.90;79.90
70366;DHT22;57787;48.216;12.396;2023-07-20T04:19:43;18.90;79.50
70366;DHT22;57787;48.216;12.396;2023-07-20T04:22:11;19.00;79.50
70366;DHT22;57787;48.216;12.396;2023-07-20T04:24:37;19.00;79.30
70366;DHT22;57787;48.216;12.396;2023-07-20T04:27:04;19.00;79.20
70366;DHT22;57787;48.216;12.396;2023-07-20T04:29:32;19.00;78.90
70366;DHT22;57787;48.216;12.396;2023-07-20T04:31:59;19.00;79.20
70366;DHT22;57787;48.216;12.396;2023-07-20T04:34:26;19.10;79.20
70366;DHT22;57787;48.216;12.396;2023-07-20T04:36:52;19.00;78.50
70366;DHT22;57787;48.216;12.396;2023-07-20T04:39:20;19.00;78.30
70366;DHT22;57787;48.216;12.396;2023-07-20T04:41:57;19.00;78.60
70366;DHT22;57787;48.216;12.396;2023-07-20T04:44:25;19.00;77.70
70366;DHT22;57787;48.216;12.396;2023-07-20T04:46:51;19.00;77.20
70366;DHT22;57787;48.216;12.396;2023-07-20T04:49:18;19.00;77.20
70366;DHT22;57787;48.216;12.396;2023-07-20T04:51:45;19.00;77.70
70366;DHT22;57787;48.216;12.396;2023-07-20T04:54:12;19.00;77.90
70366;DHT22;57787;48.216;12.396;2023-07-20T04:56:40;19.10;78.10
70366;DHT22;57787;48.216;12.396;2023-07-20T04:59:07;19.10;77.70
70366;DHT22;57787;48.216;12.396;2023-07-20T05:01:34;19.10;77.40
70366;DHT22;57787;48.216;12.396;2023-07-20T05:04:01;19.10;77.10
70366;DHT22;57787;48.216;12.396;2023-07-20T05:06:30;19.20;77.00
70366;DHT22;57787;48.216;12.396;2023-07-20T05:08:59;19.20;76.80
70366;DHT22;57787;48.216;12.396;2023-07-20T05:11:26;19.20;76.60
70366;DHT22;57787;48.216;12.396;2023-07-20T05:13:53;19.30;77.60
70366;DHT22;57787;48.216;12.396;2023-07-20T05:16:20;19.30;77.80
70366;DHT22;57787;48.216;12.396;2023-07-20T05:18:49;19.30;77.10
70366;DHT22;57787;48.216;12.396;2023-07-20T05:21:16;19.30;77.20
70366;DHT22;57787;48.216;12.396;2023-07-20T05:23:43;19.30;77.00
70366;DHT22;57787;48.216;12.396;2023-07-20T05:26:10;19.40;76.70
70366;DHT22;57787;48.216;12.396;2023-07-20T05:28:37;19.40;76.00
70366;DHT22;57787;48.216;12.396;2023-07-20T05:31:04;19.50;76.20
70366;DHT22;57787;48.216;12.396;2023-07-20T05:33:32;19.50;76.60
70366;DHT22;57787;48.216;12.396;2023-07-20T05:35:59;19.60;75.20
70366;DHT22;57787;48.216;12.396;2023-07-20T05:38:26;19.60;74.90
70366;DHT22;57787;48.216;12.396;2023-07-20T05:40:58;19.70;74.70
70366;DHT22;57787;48.216;12.396;2023-07-20T05:43:28;19.70;75.50
70366;DHT22;57787;48.216;12.396;2023-07-20T05:45:56;19.70;71.00
70366;DHT22;57787;48.216;12.396;2023-07-20T05:48:23;19.80;68.90
70366;DHT22;57787;48.216;12.396;2023-07-20T05:50:51;19.80;68.60
70366;DHT22;57787;48.216;12.396;2023-07-20T05:53:18;19.90;69.60
70366;DHT22;57787;48.216;12.396;2023-07-20T05:55:51;20.00;69.10
70366;DHT22;57787;48.216;12.396;2023-07-20T05:58:19;20.00;69.50
70366;DHT22;57787;48.216;12.396;2023-07-20T06:00:50;20.00;66.60
70366;DHT22;57787;48.216;12.396;2023-07-20T06:03:17;20.00;67.20
70366;DHT22;57787;48.216;12.396;2023-07-20T06:05:45;20.00;67.70
70366;DHT22;57787;48.216;12.396;2023-07-20T06:08:12;20.00;68.00
70366;DHT22;57787;48.216;12.396;2023-07-20T06:10:39;20.00;68.20
70366;DHT22;57787;48.216;12.396;2023-07-20T06:13:11;20.00;69.10
70366;DHT22;57787;48.216;12.396;2023-07-20T06:15:38;20.10;69.80
70366;DHT22;57787;48.216;12.396;2023-07-20T06:18:07;20.20;70.40
70366;DHT22;57787;48.216;12.396;2023-07-20T06:20:34;20.30;71.00
70366;DHT22;57787;48.216;12.396;2023-07-20T06:23:01;20.30;72.60
70366;DHT22;57787;48.216;12.396;2023-07-20T06:25:28;20.40;72.80
70366;DHT22;57787;48.216;12.396;2023-07-20T06:27:57;20.40;72.20
70366;DHT22;57787;48.216;12.396;2023-07-20T06:30:24;20.50;71.40
70366;DHT22;57787;48.216;12.396;2023-07-20T06:32:51;20.50;71.20
70366;DHT22;57787;48.216;12.396;2023-07-20T06:35:18;20.50;71.80
70366;DHT22;57787;48.216;12.396;2023-07-20T06:37:45;20.50;71.90
70366;DHT22;57787;48.216;12.396;2023-07-20T06:40:12;20.60;72.30
70366;DHT22;57787;48.216;12.396;2023-07-20T06:42:42;20.50;71.60
70366;DHT22;57787;48.216;12.396;2023-07-20T06:45:12;20.60;71.90
70366;DHT22;57787;48.216;12.396;2023-07-20T06:47:39;20.50;71.50
70366;DHT22;57787;48.216;12.396;2023-07-20T06:50:07;20.50;71.80
70366;DHT22;57787;48.216;12.396;2023-07-20T06:52:35;20.50;71.90
70366;DHT22;57787;48.216;12.396;2023-07-20T06:55:03;20.50;71.70
70366;DHT22;57787;48.216;12.396;2023-07-20T06:57:32;20.50;72.20
70366;DHT22;57787;48.216;12.396;2023-07-20T06:59:58;20.60;72.20
70366;DHT22;57787;48.216;12.396;2023-07-20T07:02:25;20.60;72.30
70366;DHT22;57787;48.216;12.396;2023-07-20T07:04:52;20.80;71.80
70366;DHT22;57787;48.216;12.396;2023-07-20T07:07:23;20.80;72.30
70366;DHT22;57787;48.216;12.396;2023-07-20T07:09:53;20.90;72.10
70366;DHT22;57787;48.216;12.396;2023-07-20T07:12:20;21.00;71.60
70366;DHT22;57787;48.216;12.396;2023-07-20T07:14:47;21.10;70.10
70366;DHT22;57787;48.216;12.396;2023-07-20T07:17:15;21.30;70.40
70366;DHT22;57787;48.216;12.396;2023-07-20T07:19:45;21.30;69.80
70366;DHT22;57787;48.216;12.396;2023-07-20T07:22:14;21.50;69.00
70366;DHT22;57787;48.216;12.396;2023-07-20T07:24:42;21.60;68.70
70366;DHT22;57787;48.216;12.396;2023-07-20T07:27:09;21.60;68.50
70366;DHT22;57787;48.216;12.396;2023-07-20T07:29:36;21.60;68.70
70366;DHT22;57787;48.216;12.396;2023-07-20T07:32:02;21.60;68.70
70366;DHT22;57787;48.216;12.396;2023-07-20T07:34:29;21.70;69.30
70366;DHT22;57787;48.216;12.396;2023-07-20T07:36:56;21.70;68.70
70366;DHT22;57787;48.216;12.396;2023-07-20T07:39:23;21.80;68.80
70366;DHT22;57787;48.216;12.396;2023-07-20T07:41:53;21.80;68.90
70366;DHT22;57787;48.216;12.396;2023-07-20T07:44:20;21.80;68.40
70366;DHT22;57787;48.216;12.396;2023-07-20T07:46:51;21.90;68.60
70366;DHT22;57787;48.216;12.396;2023-07-20T07:49:19;22.00;69.00
70366;DHT22;57787;48.216;12.396;2023-07-20T07:51:46;22.20;67.70
70366;DHT22;57787;48.216;12.396;2023-07-20T07:54:14;22.30;67.40
70366;DHT22;57787;48.216;12.396;2023-07-20T07:56:41;22.80;67.20
70366;DHT22;57787;48.216;12.396;2023-07-20T07:59:09;23.20;65.80
70366;DHT22;57787;48.216;12.396;2023-07-20T08:01:36;23.50;65.30
70366;DHT22;57787;48.216;12.396;2023-07-20T08:04:06;23.80;64.10
70366;DHT22;57787;48.216;12.396;2023-07-20T08:06:33;24.00;63.00
70366;DHT22;57787;48.216;12.396;2023-07-20T08:09:00;24.20;60.40
70366;DHT22;57787;48.216;12.396;2023-07-20T08:11:27;24.30;59.80
70366;DHT22;57787;48.216;12.396;2023-07-20T08:13:57;24.40;60.10
70366;DHT22;57787;48.216;12.396;2023-07-20T08:16:26;24.40;58.60
70366;DHT22;57787;48.216;12.396;2023-07-20T08:18:54;24.50;59.20
70366;DHT22;57787;48.216;12.396;2023-07-20T08:21:23;24.70;59.40
70366;DHT22;57787;48.216;12.396;2023-07-20T08:23:50;24.70;57.20
70366;DHT22;57787;48.216;12.396;2023-07-20T08:26:19;24.80;58.40
70366;DHT22;57787;48.216;12.396;2023-07-20T08:28:51;24.90;57.30
70366;DHT22;57787;48.216;12.396;2023-07-20T08:31:19;25.00;57.50
70366;DHT22;57787;48.216;12.396;2023-07-20T08:33:46;25.00;57.30
70366;DHT22;57787;48.216;12.396;2023-07-20T08:36:13;25.10;57.10
70366;DHT22;57787;48.216;12.396;2023-07-20T08:38:41;25.00;55.80
70366;DHT22;57787;48.216;12.396;2023-07-20T08:41:09;24.90;55.20
70366;DHT22;57787;48.216;12.396;2023-07-20T08:43:36;25.20;55.40
70366;DHT22;57787;48.216;12.396;2023-07-20T08:46:05;25.40;55.60
70366;DHT22;57787;48.216;12.396;2023-07-20T08:48:32;25.20;54.80
70366;DHT22;57787;48.216;12.396;2023-07-20T08:50:59;25.40;53.60
70366;DHT22;57787;48.216;12.396;2023-07-20T08:53:30;25.80;55.00
70366;DHT22;57787;48.216;12.396;2023-07-20T08:55:58;25.90;51.60
70366;DHT22;57787;48.216;12.396;2023-07-20T08:58:26;26.10;53.50
70366;DHT22;57787;48.216;12.396;2023-07-20T09:00:54;26.00;51.00
70366;DHT22;57787;48.216;12.396;2023-07-20T09:03:22;25.90;50.30
70366;DHT22;57787;48.216;12.396;2023-07-20T09:05:49;26.30;52.40
70366;DHT22;57787;48.216;12.396;2023-07-20T09:08:16;26.20;50.70
70366;DHT22;57787;48.216;12.396;2023-07-20T09:10:43;26.10;50.40
70366;DHT22;57787;48.216;12.396;2023-07-20T09:13:13;26.00;50.10
70366;DHT22;57787;48.216;12.396;2023-07-20T09:15:47;25.90;49.50
70366;DHT22;57787;48.216;12.396;2023-07-20T09:18:24;25.80;48.90
70366;DHT22;57787;48.216;12.396;2023-07-20T09:20:52;25.90;46.90
70366;DHT22;57787;48.216;12.396;2023-07-20T09:23:19;26.10;48.10
70366;DHT22;57787;48.216;12.396;2023-07-20T09:25:46;26.10;46.80
70366;DHT22;57787;48.216;12.396;2023-07-20T09:28:20;26.20;46.70
70366;DHT22;57787;48.216;12.396;2023-07-20T09:30:48;26.10;43.20
70366;DHT22;57787;48.216;12.396;2023-07-20T09:33:22;26.30;46.00
70366;DHT22;57787;48.216;12.396;2023-07-20T09:35:52;26.30;44.40
70366;DHT22;57787;48.216;12.396;2023-07-20T09:38:25;26.60;44.50
70366;DHT22;57787;48.216;12.396;2023-07-20T09:40:52;26.90;45.10
70366;DHT22;57787;48.216;12.396;2023-07-20T09:43:22;27.30;42.10
70366;DHT22;57787;48.216;12.396;2023-07-20T09:45:52;27.60;40.10
70366;DHT22;57787;48.216;12.396;2023-07-20T09:48:24;27.20;37.30
70366;DHT22;57787;48.216;12.396;2023-07-20T09:50:55;26.90;38.30
70366;DHT22;57787;48.216;12.396;2023-07-20T09:53:24;26.70;40.80
70366;DHT22;57787;48.216;12.396;2023-07-20T09:55:53;26.30;37.70
70366;DHT22;57787;48.216;12.396;2023-07-20T09:58:21;26.00;38.00
70366;DHT22;57787;48.216;12.396;2023-07-20T10:00:48;26.10;39.50
70366;DHT22;57787;48.216;12.396;2023-07-20T10:03:20;26.20;40.00
70366;DHT22;57787;48.216;12.396;2023-07-20T10:05:51;26.10;40.40
70366;DHT22;57787;48.216;12.396;2023-07-20T10:08:18;25.80;39.30
70366;DHT22;57787;48.216;12.396;2023-07-20T10:10:48;25.60;40.20
70366;DHT22;57787;48.216;12.396;2023-07-20T10:13:21;25.80;41.40
70366;DHT22;57787;48.216;12.396;2023-07-20T10:15:53;26.00;42.00
70366;DHT22;57787;48.216;12.396;2023-07-20T10:18:22;26.00;41.20
70366;DHT22;57787;48.216;12.396;2023-07-20T10:20:52;26.10;40.00
70366;DHT22;57787;48.216;12.396;2023-07-20T10:23:34;25.90;38.80
70366;DHT22;57787;48.216;12.396;2023-07-20T10:26:01;26.00;39.60
70366;DHT22;57787;48.216;12.396;2023-07-20T10:28:29;26.10;38.80
70366;DHT22;57787;48.216;12.396;2023-07-20T10:30:58;26.00;40.30
70366;DHT22;57787;48.216;12.396;2023-07-20T10:33:24;26.00;40.20
70366;DHT22;57787;48.216;12.396;2023-07-20T10:36:02;26.20;40.80
70366;DHT22;57787;48.216;12.396;2023-07-20T10:38:39;26.20;39.80
70366;DHT22;57787;48.216;12.396;2023-07-20T10:41:22;26.30;40.40
70366;DHT22;57787;48.216;12.396;2023-07-20T10:43:57;26.50;40.20
70366;DHT22;57787;48.216;12.396;2023-07-20T10:49:07;26.60;39.70
70366;DHT22;57787;48.216;12.396;2023-07-20T10:54:08;26.10;39.10
70366;DHT22;57787;48.216;12.396;2023-07-20T10:56:34;26.20;39.00
70366;DHT22;57787;48.216;12.396;2023-07-20T10:59:02;26.00;41.80
70366;DHT22;57787;48.216;12.396;2023-07-20T11:01:45;26.20;38.60
70366;DHT22;57787;48.216;12.396;2023-07-20T11:04:14;26.40;39.90
70366;DHT22;57787;48.216;12.396;2023-07-20T11:06:43;26.70;40.60
70366;DHT22;57787;48.216;12.396;2023-07-20T11:09:12;26.70;36.70
70366;DHT22;57787;48.216;12.396;2023-07-20T11:11:44;26.70;38.70
70366;DHT22;57787;48.216;12.396;2023-07-20T11:16:48;27.30;37.70
70366;DHT22;57787;48.216;12.396;2023-07-20T11:19:25;27.40;39.40
70366;DHT22;57787;48.216;12.396;2023-07-20T11:21:56;27.70;40.70
70366;DHT22;57787;48.216;12.396;2023-07-20T11:24:30;27.80;39.40
70366;DHT22;57787;48.216;12.396;2023-07-20T11:26:58;28.10;38.10
70366;DHT22;57787;48.216;12.396;2023-07-20T11:29:25;28.00;37.20
70366;DHT22;57787;48.216;12.396;2023-07-20T11:31:59;28.10;37.90
70366;DHT22;57787;48.216;12.396;2023-07-20T11:34:31;28.10;37.10
70366;DHT22;57787;48.216;12.396;2023-07-20T11:36:58;28.30;36.20
70366;DHT22;57787;48.216;12.396;2023-07-20T11:39:28;28.30;37.60
70366;DHT22;57787;48.216;12.396;2023-07-20T11:41:56;28.30;36.70
70366;DHT22;57787;48.216;12.396;2023-07-20T11:44:24;28.50;37.90
70366;DHT22;57787;48.216;12.396;2023-07-20T11:47:10;28.30;36.40
70366;DHT22;57787;48.216;12.396;2023-07-20T11:49:38;28.30;36.30
70366;DHT22;57787;48.216;12.396;2023-07-20T11:52:06;28.20;38.00
70366;DHT22;57787;48.216;12.396;2023-07-20T11:54:37;28.10;35.60
70366;DHT22;57787;48.216;12.396;2023-07-20T11:57:05;28.00;38.10
70366;DHT22;57787;48.216;12.396;2023-07-20T11:59:32;28.10;37.00
70366;DHT22;57787;48.216;12.396;2023-07-20T12:02:02;28.00;36.70
70366;DHT22;57787;48.216;12.396;2023-07-20T12:04:33;28.00;37.10
70366;DHT22;57787;48.216;12.396;2023-07-20T12:06:59;27.90;36.10
70366;DHT22;57787;48.216;12.396;2023-07-20T12:09:27;27.80;36.80
70366;DHT22;57787;48.216;12.396;2023-07-20T12:12:11;27.90;37.90
70366;DHT22;57787;48.216;12.396;2023-07-20T12:14:39;27.90;36.40
70366;DHT22;57787;48.216;12.396;2023-07-20T12:17:07;28.00;38.70
70366;DHT22;57787;48.216;12.396;2023-07-20T12:19:37;28.10;36.70
70366;DHT22;57787;48.216;12.396;2023-07-20T12:22:04;28.30;37.80
70366;DHT22;57787;48.216;12.396;2023-07-20T12:24:31;28.30;35.00
70366;DHT22;57787;48.216;12.396;2023-07-20T12:27:01;28.30;35.80
70366;DHT22;57787;48.216;12.396;2023-07-20T12:29:28;28.40;36.50
70366;DHT22;57787;48.216;12.396;2023-07-20T12:31:54;28.40;35.70
70366;DHT22;57787;48.216;12.396;2023-07-20T12:34:21;28.40;36.00
70366;DHT22;57787;48.216;12.396;2023-07-20T12:36:48;28.50;35.90
70366;DHT22;57787;48.216;12.396;2023-07-20T12:39:15;28.50;36.20
70366;DHT22;57787;48.216;12.396;2023-07-20T12:41:41;28.50;35.50
70366;DHT22;57787;48.216;12.396;2023-07-20T12:44:08;28.70;37.60
70366;DHT22;57787;48.216;12.396;2023-07-20T12:46:36;28.80;38.00
70366;DHT22;57787;48.216;12.396;2023-07-20T12:49:05;28.80;37.40
70366;DHT22;57787;48.216;12.396;2023-07-20T12:51:32;28.80;38.80
70366;DHT22;57787;48.216;12.396;2023-07-20T12:53:59;28.60;35.90
70366;DHT22;57787;48.216;12.396;2023-07-20T12:56:25;28.40;36.60
70366;DHT22;57787;48.216;12.396;2023-07-20T12:58:55;28.30;36.60
70366;DHT22;57787;48.216;12.396;2023-07-20T13:01:22;28.10;35.70
70366;DHT22;57787;48.216;12.396;2023-07-20T13:03:50;28.10;37.00
70366;DHT22;57787;48.216;12.396;2023-07-20T13:06:20;28.20;38.30
70366;DHT22;57787;48.216;12.396;2023-07-20T13:08:53;28.30;37.20
70366;DHT22;57787;48.216;12.396;2023-07-20T13:11:23;28.30;36.20
70366;DHT22;57787;48.216;12.396;2023-07-20T13:13:50;28.00;37.30
70366;DHT22;57787;48.216;12.396;2023-07-20T13:16:17;27.90;37.20
70366;DHT22;57787;48.216;12.396;2023-07-20T13:18:43;27.90;37.40
70366;DHT22;57787;48.216;12.396;2023-07-20T13:21:10;27.80;37.50
70366;DHT22;57787;48.216;12.396;2023-07-20T13:23:38;27.70;38.00
70366;DHT22;57787;48.216;12.396;2023-07-20T13:26:08;27.90;40.80
70366;DHT22;57787;48.216;12.396;2023-07-20T13:28:35;27.80;36.20
70366;DHT22;57787;48.216;12.396;2023-07-20T13:31:03;27.70;36.70
70366;DHT22;57787;48.216;12.396;2023-07-20T13:33:31;27.60;37.00
70366;DHT22;57787;48.216;12.396;2023-07-20T13:36:03;27.50;36.10
70366;DHT22;57787;48.216;12.396;2023-07-20T13:38:35;27.50;38.30
70366;DHT22;57787;48.216;12.396;2023-07-20T13:41:02;27.60;38.90
70366;DHT22;57787;48.216;12.396;2023-07-20T13:43:29;27.60;37.90
70366;DHT22;57787;48.216;12.396;2023-07-20T13:45:56;27.80;38.90
70366;DHT22;57787;48.216;12.396;2023-07-20T13:48:22;27.80;37.00
70366;DHT22;57787;48.216;12.396;2023-07-20T13:50:53;27.90;38.70
70366;DHT22;57787;48.216;12.396;2023-07-20T13:53:25;28.00;39.00
70366;DHT22;57787;48.216;12.396;2023-07-20T13:55:57;28.10;38.00
70366;DHT22;57787;48.216;12.396;2023-07-20T13:58:27;28.10;36.40
70366;DHT22;57787;48.216;12.396;2023-07-20T14:00:57;28.20;38.00
70366;DHT22;57787;48.216;12.396;2023-07-20T14:03:24;28.10;36.60
70366;DHT22;57787;48.216;12.396;2023-07-20T14:05:52;28.00;37.00
70366;DHT22;57787;48.216;12.396;2023-07-20T14:08:22;27.90;38.30
70366;DHT22;57787;48.216;12.396;2023-07-20T14:10:49;27.80;36.70
70366;DHT22;57787;48.216;12.396;2023-07-20T14:13:19;27.70;36.10
70366;DHT22;57787;48.216;12.396;2023-07-20T14:15:56;27.80;38.10
70366;DHT22;57787;48.216;12.396;2023-07-20T14:18:23;27.80;39.30
70366;DHT22;57787;48.216;12.396;2023-07-20T14:20:50;27.80;37.80
70366;DHT22;57787;48.216;12.396;2023-07-20T14:23:18;27.90;37.40
70366;DHT22;57787;48.216;12.396;2023-07-20T14:25:45;28.00;40.70
70366;DHT22;57787;48.216;12.396;2023-07-20T14:28:14;27.90;36.20
70366;DHT22;57787;48.216;12.396;2023-07-20T14:30:41;27.90;36.30
70366;DHT22;57787;48.216;12.396;2023-07-20T14:33:09;27.80;35.50
70366;DHT22;57787;48.216;12.396;2023-07-20T14:35:36;27.90;37.20
70366;DHT22;57787;48.216;12.396;2023-07-20T14:38:03;27.90;36.90
70366;DHT22;57787;48.216;12.396;2023-07-20T14:40:30;27.90;37.90
70366;DHT22;57787;48.216;12.396;2023-07-20T14:43:00;27.90;39.70
70366;DHT22;57787;48.216;12.396;2023-07-20T14:45:28;27.80;37.50
70366;DHT22;57787;48.216;12.396;2023-07-20T14:47:55;27.70;37.10
70366;DHT22;57787;48.216;12.396;2023-07-20T14:50:22;27.60;36.40
70366;DHT22;57787;48.216;12.396;2023-07-20T14:52:49;27.40;37.40
70366;DHT22;57787;48.216;12.396;2023-07-20T14:55:16;27.30;37.80
70366;DHT22;57787;48.216;12.396;2023-07-20T14:57:43;27.30;36.60
70366;DHT22;57787;48.216;12.396;2023-07-20T15:00:11;27.30;38.50
70366;DHT22;57787;48.216;12.396;2023-07-20T15:02:39;27.30;38.10
70366;DHT22;57787;48.216;12.396;2023-07-20T15:05:10;27.30;38.60
70366;DHT22;57787;48.216;12.396;2023-07-20T15:07:37;27.30;36.60
70366;DHT22;57787;48.216;12.396;2023-07-20T15:10:04;27.30;39.00
70366;DHT22;57787;48.216;12.396;2023-07-20T15:12:32;27.20;37.40
70366;DHT22;57787;48.216;12.396;2023-07-20T15:15:08;27.00;37.40
70366;DHT22;57787;48.216;12.396;2023-07-20T15:17:35;26.90;36.60
70366;DHT22;57787;48.216;12.396;2023-07-20T15:20:03;26.80;39.10
70366;DHT22;57787;48.216;12.396;2023-07-20T15:22:31;26.70;39.50
70366;DHT22;57787;48.216;12.396;2023-07-20T15:24:58;26.70;42.60
70366;DHT22;57787;48.216;12.396;2023-07-20T15:27:27;26.70;44.50
70366;DHT22;57787;48.216;12.396;2023-07-20T15:29:55;26.70;38.20
70366;DHT22;57787;48.216;12.396;2023-07-20T15:32:22;26.70;41.00
70366;DHT22;57787;48.216;12.396;2023-07-20T15:34:51;26.60;39.10